Irving North's Hourly Summary for Tuesday, June 30, 2020
Hour Temp
(f)
RH
(%)
Solar Rad.
(MJ/m2)
Rainfall
(in)
Wind
(mph)
Battery
(volts)
6/30/2020 12:00 AM 84 67 0 0 4.88 12.29
6/30/2020 1:00 AM 83 70 0 0 4.88 12.27
6/30/2020 2:00 AM 82 72 0 0 4.61 12.23
6/30/2020 3:00 AM 82 74 0 0 6.12 12.2
6/30/2020 4:00 AM 81 77 0 0 4.2 12.17
6/30/2020 5:00 AM 81 78 0 0 4.03 12.14
6/30/2020 6:00 AM 80 79 0 0 3.83 12.11
6/30/2020 7:00 AM 81 79 0.02 0 3.83 12.08
6/30/2020 8:00 AM 81 78 0.21 0 4.22 12.07
6/30/2020 9:00 AM 83 70 1.02 0 5.04 12.07
6/30/2020 10:00 AM 84 68 0.65 0 5.21 12.12
6/30/2020 11:00 AM 84 67 0.84 0 4.74 12.15
6/30/2020 12:00 PM 86 63 1.26 0 5.17 12.27
6/30/2020 1:00 PM 88 59 2.26 0 6.35 12.45
6/30/2020 2:00 PM 90 52 3.14 0 6.26 12.48
6/30/2020 3:00 PM 92 49 3.22 0 6.89 12.67
6/30/2020 4:00 PM 93 44 2.96 0 6.61 12.91
6/30/2020 5:00 PM 93 44 2.53 0 5.5 12.97
6/30/2020 6:00 PM 92 46 1.24 0 5.59 12.7
6/30/2020 7:00 PM 90 49 1.03 0 5.22 12.69
6/30/2020 8:00 PM 89 53 0.22 0 4.03 12.45
6/30/2020 9:00 PM 87 59 0.05 0 4.19 12.4
6/30/2020 10:00 PM 86 63 0 0 3.87 12.38
6/30/2020 11:00 PM 86 63 0 0 3.47 12.35
Data Summary 85 63 20.65 0.00 4.95 12.36